Time;durP1;ratioP1;P1;durP2;ratioP2;P2;SDS_P1;SDS_P2;PMS_P1;PMS_P2;Temp;Humidity;BMP_temperature;BMP_pressure;BME280_temperature;BME280_humidity;BME280_pressure;Samples;Min_cycle;Max_cycle;Signal;HPM_P1;HPM_P2
2022/12/23 00:01:07;;;;;;;91.38;26.70;;;8.40;99.90;;;;;;5013559;28;20080;-49
2022/12/23 00:03:33;;;;;;;100.72;27.55;;;8.50;99.90;;;;;;5014720;28;20654;-50
2022/12/23 00:05:59;;;;;;;88.32;27.15;;;8.40;99.90;;;;;;5014164;28;20033;-50
2022/12/23 00:08:26;;;;;;;89.82;27.67;;;8.50;99.90;;;;;;5014560;28;20033;-52
2022/12/23 00:10:55;;;;;;;74.95;27.38;;;8.60;99.90;;;;;;5014109;28;20033;-47
2022/12/23 00:16:11;;;;;;;122.97;29.73;;;8.60;99.90;;;;;;4989319;28;20524;-54
2022/12/23 00:18:37;;;;;;;117.45;29.05;;;8.10;99.90;;;;;;5003402;28;20397;-53
2022/12/23 00:21:09;;;;;;;125.68;29.35;;;8.60;99.90;;;;;;5001328;28;20093;-51
2022/12/23 00:23:38;;;;;;;143.45;30.85;;;8.40;99.90;;;;;;5011164;28;20042;-49
2022/12/23 00:26:04;;;;;;;116.53;30.23;;;8.70;99.90;;;;;;5012390;28;20440;-51
2022/12/23 00:28:31;;;;;;;141.07;30.92;;;8.70;99.90;;;;;;5012283;28;20088;-48
2022/12/23 00:31:02;;;;;;;137.63;31.05;;;8.50;99.90;;;;;;5012255;28;20042;-49
2022/12/23 00:33:31;;;;;;;153.48;31.77;;;8.10;99.90;;;;;;5012837;28;20042;-48
2022/12/23 00:35:57;;;;;;;141.25;30.73;;;8.20;99.90;;;;;;5013679;28;20100;-49
2022/12/23 00:43:59;;;;;;;128.05;28.08;;;8.70;99.90;;;;;;4981684;28;20588;-49
2022/12/23 00:46:26;;;;;;;137.23;29.20;;;8.50;99.90;;;;;;5013152;28;20048;-48
2022/12/23 00:51:36;;;;;;;121.13;29.23;;;8.10;99.90;;;;;;5013433;28;20054;-47
2022/12/23 00:54:02;;;;;;;100.55;28.30;;;8.70;99.90;;;;;;5012756;28;20041;-50
2022/12/23 00:56:28;;;;;;;108.55;28.00;;;8.20;99.90;;;;;;5013532;28;20062;-50
2022/12/23 00:58:54;;;;;;;95.97;28.00;;;8.50;99.90;;;;;;5013214;28;20131;-50
2022/12/23 01:07:06;;;;;;;97.28;27.90;;;8.80;99.90;;;;;;4962296;28;20101;-48
2022/12/23 01:09:32;;;;;;;99.95;28.17;;;8.70;99.90;;;;;;5003278;28;20133;-49
2022/12/23 01:11:58;;;;;;;92.25;28.35;;;8.10;99.90;;;;;;5012747;28;20496;-49
2022/12/23 01:14:24;;;;;;;88.20;27.60;;;8.40;99.90;;;;;;5012998;28;20037;-50
2022/12/23 01:16:49;;;;;;;87.43;27.15;;;8.20;99.90;;;;;;5012497;28;20042;-49
2022/12/23 01:19:15;;;;;;;86.35;27.50;;;8.50;99.90;;;;;;4995681;28;20053;-49
2022/12/23 01:21:41;;;;;;;91.22;27.45;;;8.10;99.90;;;;;;5013136;28;20052;-48
2022/12/23 01:24:07;;;;;;;86.88;29.02;;;8.70;99.90;;;;;;5011806;28;20500;-51
2022/12/23 01:26:33;;;;;;;83.30;27.83;;;8.40;99.90;;;;;;5012595;28;20053;-49
2022/12/23 01:28:59;;;;;;;73.60;26.80;;;8.70;99.90;;;;;;5014422;28;21215;-48
2022/12/23 01:31:26;;;;;;;84.80;27.67;;;8.60;99.90;;;;;;5012523;28;20049;-50
2022/12/23 01:33:52;;;;;;;74.07;26.52;;;8.70;99.90;;;;;;5012529;28;20113;-50
2022/12/23 01:36:19;;;;;;;68.13;27.17;;;8.50;99.90;;;;;;5012316;28;20076;-49
2022/12/23 01:38:45;;;;;;;72.38;28.80;;;8.10;99.90;;;;;;5012631;28;20117;-48
2022/12/23 01:42:42;;;;;;;64.90;27.65;;;8.10;99.90;;;;;;5012654;28;20128;-50
2022/12/23 01:44:42;;;;;;;63.42;27.73;;;8.20;99.90;;;;;;5012266;28;20370;-49
2022/12/23 01:47:13;;;;;;;62.08;26.55;;;8.70;99.90;;;;;;5013323;28;20179;-49
2022/12/23 01:49:40;;;;;;;70.72;27.63;;;8.80;99.90;;;;;;5012275;28;20107;-48
2022/12/23 01:52:06;;;;;;;69.57;25.48;;;8.40;99.90;;;;;;5012832;28;20042;-49
2022/12/23 01:54:32;;;;;;;70.38;25.80;;;8.50;99.90;;;;;;5011056;28;20398;-49
2022/12/23 01:56:58;;;;;;;64.88;26.17;;;8.70;99.90;;;;;;5012357;28;20397;-50
2022/12/23 02:04:53;;;;;;;;;;;8.00;99.90;;;;;;5011917;28;20125;-49
2022/12/23 02:10:05;;;;;;;66.13;26.08;;;8.50;99.90;;;;;;5011694;28;20504;-50
2022/12/23 02:12:49;;;;;;;73.53;25.23;;;8.50;99.90;;;;;;5011866;28;20038;-49
2022/12/23 02:18:20;;;;;;;68.65;24.67;;;8.10;99.90;;;;;;5010294;28;20401;-48
2022/12/23 02:21:14;;;;;;;65.65;23.60;;;8.40;99.90;;;;;;5011742;28;20077;-50
2022/12/23 02:23:58;;;;;;;63.20;23.30;;;7.80;99.90;;;;;;5011746;28;20038;-48
2022/12/23 02:26:54;;;;;;;62.15;22.77;;;8.50;99.90;;;;;;5128958;27;20387;-48
2022/12/23 02:29:20;;;;;;;57.40;21.08;;;8.10;99.90;;;;;;5129035;27;20053;-47
2022/12/23 02:31:49;;;;;;;62.13;20.27;;;7.80;99.90;;;;;;5129007;27;20110;-50
2022/12/23 02:34:20;;;;;;;51.85;19.25;;;8.50;99.90;;;;;;5129080;27;20489;-48
2022/12/23 02:37:03;;;;;;;50.85;18.40;;;7.80;99.90;;;;;;5134296;27;20034;-48
2022/12/23 02:39:38;;;;;;;49.03;17.92;;;7.80;99.90;;;;;;5129192;27;20059;-47
2022/12/23 02:42:10;;;;;;;56.78;18.58;;;7.70;99.90;;;;;;5128711;27;20042;-48
2022/12/23 02:44:55;;;;;;;41.47;16.17;;;7.70;99.90;;;;;;5128682;27;20051;-47
2022/12/23 02:47:30;;;;;;;43.75;15.63;;;8.40;99.90;;;;;;5128960;27;20427;-46
2022/12/23 02:50:00;;;;;;;46.03;16.13;;;7.90;99.90;;;;;;5128840;27;20137;-47
2022/12/23 02:52:33;;;;;;;45.70;16.02;;;7.60;99.90;;;;;;5128812;27;20071;-50
2022/12/23 02:55:05;;;;;;;42.90;14.20;;;8.00;99.90;;;;;;5128760;27;20088;-48
2022/12/23 02:57:37;;;;;;;39.72;14.45;;;8.30;99.90;;;;;;5128800;27;20083;-48
2022/12/23 03:00:05;;;;;;;40.67;14.02;;;8.20;99.90;;;;;;5128729;27;20639;-49
2022/12/23 03:02:33;;;;;;;37.20;14.02;;;8.20;99.90;;;;;;5128623;27;20050;-49
2022/12/23 03:04:58;;;;;;;42.33;14.65;;;7.80;99.90;;;;;;5128670;27;20040;-48
2022/12/23 03:07:36;;;;;;;41.88;14.85;;;8.20;99.90;;;;;;5127965;27;20378;-46
2022/12/23 03:10:16;;;;;;;40.78;14.73;;;8.10;99.90;;;;;;5128433;27;20489;-48
2022/12/23 03:13:04;;;;;;;40.95;14.60;;;7.50;99.90;;;;;;5127219;27;20466;-48
2022/12/23 03:15:51;;;;;;;43.35;14.00;;;7.70;99.90;;;;;;5128312;27;20043;-46
2022/12/23 03:18:16;;;;;;;43.05;14.20;;;7.60;99.90;;;;;;5128356;27;20089;-48
2022/12/23 03:20:55;;;;;;;45.50;15.68;;;7.50;99.90;;;;;;5128712;27;20039;-47
2022/12/23 03:23:34;;;;;;;44.95;15.20;;;8.20;99.90;;;;;;5128349;27;20062;-47
2022/12/23 03:26:15;;;;;;;47.22;14.70;;;8.00;99.90;;;;;;5134501;27;20490;-49
2022/12/23 03:29:06;;;;;;;58.08;16.88;;;8.10;99.90;;;;;;5128297;27;20382;-47
2022/12/23 03:31:33;;;;;;;55.53;15.90;;;7.70;99.90;;;;;;5128041;27;20089;-46
2022/12/23 03:34:10;;;;;;;63.08;17.33;;;7.40;99.90;;;;;;5128019;27;20043;-47
2022/12/23 03:36:43;;;;;;;56.22;15.88;;;7.90;99.90;;;;;;5121567;27;20042;-46
2022/12/23 03:39:14;;;;;;;64.60;17.25;;;7.50;99.90;;;;;;5114311;27;20042;-47
2022/12/23 03:41:46;;;;;;;63.80;16.08;;;7.40;99.90;;;;;;5114223;28;20486;-48
2022/12/23 03:44:25;;;;;;;64.72;16.67;;;7.90;99.90;;;;;;5113911;28;20028;-48
2022/12/23 03:47:24;;;;;;;76.75;18.13;;;8.00;99.90;;;;;;5114081;28;20090;-49
2022/12/23 03:49:58;;;;;;;89.93;19.05;;;7.80;99.90;;;;;;5112939;28;20035;-48
2022/12/23 03:52:34;;;;;;;75.07;17.95;;;7.40;99.90;;;;;;5113702;28;20036;-49
2022/12/23 03:55:04;;;;;;;135.07;20.15;;;7.30;99.90;;;;;;5113554;28;20050;-46
2022/12/23 03:58:04;;;;;;;108.93;18.98;;;7.40;99.90;;;;;;5113657;28;20031;-46
2022/12/23 04:00:34;;;;;;;97.45;18.83;;;7.30;99.90;;;;;;5113021;28;20040;-47
2022/12/23 04:03:03;;;;;;;86.85;18.63;;;7.60;99.90;;;;;;5113723;28;20119;-48
2022/12/23 04:05:38;;;;;;;86.82;19.27;;;7.50;99.90;;;;;;5113921;28;20458;-48
2022/12/23 04:08:14;;;;;;;113.20;18.90;;;7.40;99.90;;;;;;5113059;28;20027;-46
2022/12/23 04:10:40;;;;;;;72.97;18.88;;;7.90;99.90;;;;;;5113575;28;20478;-48
2022/12/23 04:13:06;;;;;;;74.40;17.67;;;7.90;99.90;;;;;;5113367;27;20039;-48
2022/12/23 04:15:32;;;;;;;70.68;17.63;;;7.90;99.90;;;;;;5113191;27;20046;-46
2022/12/23 04:17:58;;;;;;;74.03;16.98;;;7.40;99.90;;;;;;5113484;28;20031;-47
2022/12/23 04:20:24;;;;;;;70.63;16.90;;;7.20;99.90;;;;;;5113385;28;20371;-46
2022/12/23 04:22:50;;;;;;;73.45;15.98;;;7.20;99.90;;;;;;5113094;28;20031;-48
2022/12/23 04:25:17;;;;;;;64.13;15.90;;;7.70;99.90;;;;;;5112898;28;20039;-48
2022/12/23 04:27:42;;;;;;;60.47;15.20;;;7.40;99.90;;;;;;5113243;28;20043;-49
2022/12/23 04:30:10;;;;;;;60.88;16.38;;;7.20;99.90;;;;;;5113492;28;20410;-47
2022/12/23 04:32:36;;;;;;;54.33;15.43;;;7.50;99.90;;;;;;5113177;28;20067;-48
2022/12/23 04:35:03;;;;;;;53.05;15.90;;;7.10;99.90;;;;;;5113228;28;20035;-47
2022/12/23 04:37:28;;;;;;;60.97;17.33;;;7.40;99.90;;;;;;5112719;28;20077;-48
2022/12/23 04:39:54;;;;;;;59.78;15.60;;;7.10;99.90;;;;;;5113238;28;20036;-47
2022/12/23 04:42:20;;;;;;;52.72;16.45;;;7.60;99.90;;;;;;5112935;28;20486;-46
2022/12/23 04:44:45;;;;;;;62.85;17.40;;;7.10;99.90;;;;;;5112971;27;20363;-48
2022/12/23 04:47:11;;;;;;;61.58;18.20;;;7.40;99.90;;;;;;5112517;28;20524;-47
2022/12/23 04:49:37;;;;;;;72.85;19.02;;;7.30;99.90;;;;;;5110531;28;20035;-48
2022/12/23 04:52:03;;;;;;;58.67;18.60;;;7.10;99.90;;;;;;5115656;27;20410;-47
2022/12/23 04:54:28;;;;;;;59.58;18.17;;;7.70;99.90;;;;;;5112782;28;20031;-46
2022/12/23 04:56:54;;;;;;;60.28;17.98;;;7.80;99.90;;;;;;5112723;28;20039;-47
2022/12/23 04:59:20;;;;;;;63.33;20.35;;;7.80;99.90;;;;;;5123320;27;20406;-50
2022/12/23 05:01:46;;;;;;;63.47;19.63;;;7.80;99.90;;;;;;5112211;28;20115;-49
2022/12/23 05:04:11;;;;;;;61.70;19.70;;;7.10;99.90;;;;;;5112490;27;20084;-47
2022/12/23 05:06:37;;;;;;;68.15;20.05;;;7.10;99.90;;;;;;5112028;27;20032;-47
2022/12/23 05:09:03;;;;;;;63.00;19.25;;;7.40;99.90;;;;;;5123209;27;20386;-45
2022/12/23 05:11:29;;;;;;;62.80;19.35;;;7.30;99.90;;;;;;5111934;28;20401;-47
2022/12/23 05:13:55;;;;;;;64.68;19.70;;;7.00;99.90;;;;;;5112138;28;20035;-46
2022/12/23 05:16:21;;;;;;;106.63;21.35;;;7.50;99.90;;;;;;5112349;28;20035;-48
2022/12/23 05:18:46;;;;;;;69.85;20.17;;;7.00;99.90;;;;;;5110696;28;20039;-47
2022/12/23 05:21:12;;;;;;;87.00;21.15;;;7.50;99.90;;;;;;5110376;28;20027;-51
2022/12/23 05:23:38;;;;;;;245.15;24.95;;;7.60;99.90;;;;;;5111870;28;20032;-46
2022/12/23 05:26:04;;;;;;;129.50;19.55;;;7.60;99.90;;;;;;5111487;28;20055;-45
2022/12/23 05:28:30;;;;;;;166.80;20.35;;;7.10;99.90;;;;;;5112188;28;20023;-48
2022/12/23 05:31:04;;;;;;;414.08;28.77;;;6.80;99.90;;;;;;5112013;28;20032;-48
2022/12/23 05:33:31;;;;;;;293.38;24.48;;;6.90;99.90;;;;;;5111822;28;20115;-48
2022/12/23 05:35:57;;;;;;;196.52;20.15;;;7.30;99.90;;;;;;5112037;28;20047;-46
2022/12/23 05:38:23;;;;;;;253.38;25.15;;;7.30;99.90;;;;;;5110194;28;20524;-46
2022/12/23 05:40:50;;;;;;;497.58;29.40;;;7.30;99.90;;;;;;5117825;27;20048;-46
2022/12/23 05:43:16;;;;;;;307.05;24.35;;;7.40;99.90;;;;;;5116524;27;20071;-46
2022/12/23 05:45:42;;;;;;;208.10;23.52;;;7.00;99.90;;;;;;5119811;27;20086;-46
2022/12/23 05:48:08;;;;;;;333.92;27.55;;;6.90;99.90;;;;;;5110947;27;20088;-46
2022/12/23 05:50:36;;;;;;;332.42;28.48;;;7.60;99.90;;;;;;5111765;28;20118;-48
2022/12/23 05:53:01;;;;;;;372.13;27.75;;;6.90;99.90;;;;;;5111188;28;20038;-47
2022/12/23 05:55:27;;;;;;;389.08;29.23;;;7.00;99.90;;;;;;5111780;28;20039;-50
2022/12/23 05:57:53;;;;;;;326.73;27.48;;;7.00;99.90;;;;;;5111192;28;20042;-47
2022/12/23 06:00:19;;;;;;;238.10;24.52;;;6.90;99.90;;;;;;5111049;28;20035;-47
2022/12/23 06:02:45;;;;;;;273.58;22.55;;;6.90;99.90;;;;;;5111537;28;20124;-51
2022/12/23 06:05:12;;;;;;;279.48;25.00;;;6.90;99.90;;;;;;5111457;28;20165;-47
2022/12/23 06:07:39;;;;;;;294.77;24.65;;;7.40;99.90;;;;;;5109571;28;20032;-49
2022/12/23 06:10:07;;;;;;;367.00;25.85;;;7.40;99.90;;;;;;5111234;28;20066;-51
2022/12/23 06:12:32;;;;;;;200.15;20.48;;;7.40;99.90;;;;;;5111609;28;20474;-48
2022/12/23 06:14:58;;;;;;;86.50;17.70;;;7.40;99.90;;;;;;5111172;28;20035;-47
2022/12/23 06:17:24;;;;;;;192.10;20.02;;;6.80;99.90;;;;;;5110089;28;20040;-46
2022/12/23 06:19:50;;;;;;;222.32;20.75;;;7.40;99.90;;;;;;5111223;28;20486;-49
2022/12/23 06:22:16;;;;;;;210.25;19.25;;;7.30;99.90;;;;;;5111037;28;20218;-51
2022/12/23 06:24:43;;;;;;;256.42;20.30;;;7.20;99.90;;;;;;5110540;28;20059;-48
2022/12/23 06:27:09;;;;;;;160.00;18.27;;;7.30;99.90;;;;;;5110741;28;20075;-47
2022/12/23 06:29:35;;;;;;;149.77;17.55;;;7.40;99.90;;;;;;5100313;28;20082;-50
2022/12/23 06:32:00;;;;;;;209.98;19.60;;;7.30;99.90;;;;;;5111194;28;20501;-46
2022/12/23 06:34:26;;;;;;;109.90;16.85;;;6.60;99.90;;;;;;5110976;28;20043;-49
2022/12/23 06:36:52;;;;;;;68.53;15.82;;;6.90;99.90;;;;;;5110397;28;20367;-46
2022/12/23 06:39:18;;;;;;;99.60;16.98;;;6.50;99.90;;;;;;5129450;28;20066;-48
2022/12/23 06:41:44;;;;;;;104.57;16.45;;;6.60;99.90;;;;;;5126985;27;20451;-50
2022/12/23 06:44:10;;;;;;;86.43;15.80;;;6.90;99.90;;;;;;5111231;28;20484;-50
2022/12/23 06:46:36;;;;;;;112.20;16.23;;;6.60;99.90;;;;;;5111068;28;20082;-48
2022/12/23 06:49:02;;;;;;;113.93;16.85;;;7.20;99.90;;;;;;5111121;28;20036;-47
2022/12/23 06:51:27;;;;;;;114.07;16.85;;;6.60;99.90;;;;;;5110969;28;20381;-48
2022/12/23 06:53:53;;;;;;;75.50;15.05;;;7.20;99.90;;;;;;5110986;28;20043;-47
2022/12/23 06:56:19;;;;;;;66.43;16.25;;;7.10;99.90;;;;;;5110968;28;20039;-49
2022/12/23 06:58:45;;;;;;;44.25;14.90;;;6.50;99.90;;;;;;5111108;28;20446;-46
2022/12/23 07:01:10;;;;;;;55.75;16.20;;;6.60;99.90;;;;;;5109049;28;20075;-46
2022/12/23 07:03:36;;;;;;;43.40;15.70;;;6.70;99.90;;;;;;5110704;28;20066;-46
2022/12/23 07:06:02;;;;;;;36.80;14.88;;;6.80;99.90;;;;;;5110735;28;20201;-49
2022/12/23 07:08:28;;;;;;;32.83;14.57;;;6.90;99.90;;;;;;5110620;28;20032;-46
2022/12/23 07:10:58;;;;;;;31.88;14.60;;;7.00;99.90;;;;;;5110455;28;20047;-46
2022/12/23 07:13:24;;;;;;;44.70;15.68;;;6.50;99.90;;;;;;5114727;28;20031;-48
2022/12/23 07:15:50;;;;;;;43.83;14.27;;;7.20;99.90;;;;;;5114654;28;20561;-51
2022/12/23 07:18:15;;;;;;;36.30;15.00;;;6.80;99.90;;;;;;5114603;28;20743;-49
2022/12/23 07:20:41;;;;;;;43.80;14.60;;;6.40;99.90;;;;;;5114646;28;20039;-47
2022/12/23 07:23:07;;;;;;;46.25;14.20;;;7.10;99.90;;;;;;5114350;28;20039;-52
2022/12/23 07:25:32;;;;;;;33.47;14.63;;;7.00;99.90;;;;;;5113834;28;20450;-49
2022/12/23 07:27:58;;;;;;;40.53;14.70;;;7.10;99.90;;;;;;5114571;28;20035;-47
2022/12/23 07:30:24;;;;;;;33.45;15.05;;;6.50;99.90;;;;;;5114212;28;20580;-50
2022/12/23 07:32:50;;;;;;;32.65;14.77;;;7.10;99.90;;;;;;5113964;27;20031;-49
2022/12/23 07:35:16;;;;;;;30.05;14.93;;;6.70;99.90;;;;;;5113987;28;20032;-50
2022/12/23 07:37:42;;;;;;;37.30;14.63;;;6.50;99.90;;;;;;5113468;28;20044;-47
2022/12/23 07:40:09;;;;;;;32.78;14.23;;;6.90;99.90;;;;;;5113850;28;20042;-50
2022/12/23 07:42:35;;;;;;;36.20;15.27;;;6.50;99.90;;;;;;5114140;28;20043;-48
2022/12/23 07:45:01;;;;;;;34.33;15.75;;;7.00;99.90;;;;;;5113774;28;20039;-47
2022/12/23 07:47:26;;;;;;;36.42;15.65;;;6.60;99.90;;;;;;5114131;28;20035;-47
2022/12/23 07:49:52;;;;;;;45.80;16.23;;;7.10;99.90;;;;;;5113557;27;20077;-49
2022/12/23 07:52:18;;;;;;;41.42;16.75;;;6.90;99.90;;;;;;5114044;28;20081;-49
2022/12/23 07:54:43;;;;;;;35.63;14.93;;;6.50;99.90;;;;;;5113884;28;20065;-48
2022/12/23 07:57:09;;;;;;;34.47;14.77;;;6.90;99.90;;;;;;5113517;28;20039;-50
2022/12/23 07:59:35;;;;;;;34.55;14.98;;;6.60;99.90;;;;;;5116708;27;20043;-47
2022/12/23 08:02:01;;;;;;;35.28;14.85;;;7.00;99.90;;;;;;5124429;27;20390;-48
2022/12/23 08:04:26;;;;;;;42.03;16.55;;;7.30;99.90;;;;;;5113706;28;20061;-49
2022/12/23 08:06:52;;;;;;;36.97;15.35;;;6.90;99.90;;;;;;5113450;28;20115;-50
2022/12/23 08:09:18;;;;;;;45.35;15.85;;;6.90;99.90;;;;;;5113648;27;20031;-50
2022/12/23 08:11:44;;;;;;;46.60;16.52;;;7.20;99.90;;;;;;5123750;27;20056;-50
2022/12/23 08:14:10;;;;;;;41.72;15.73;;;6.90;99.90;;;;;;5113473;28;20039;-52
2022/12/23 08:16:36;;;;;;;40.67;15.38;;;7.10;99.90;;;;;;5113214;28;20074;-48
2022/12/23 08:19:02;;;;;;;49.40;16.35;;;7.30;99.90;;;;;;5109110;28;20035;-50
2022/12/23 08:21:27;;;;;;;61.22;16.38;;;7.30;99.90;;;;;;5103203;27;20048;-50
2022/12/23 08:23:53;;;;;;;86.50;18.00;;;7.30;99.90;;;;;;5103177;28;20039;-49
2022/12/23 08:26:21;;;;;;;99.15;19.00;;;7.00;99.90;;;;;;5102330;28;20047;-48
2022/12/23 08:28:48;;;;;;;85.32;19.27;;;7.30;99.90;;;;;;5102407;28;20051;-48
2022/12/23 08:31:23;;;;;;;130.35;19.77;;;7.30;99.90;;;;;;5083099;28;20039;-49
2022/12/23 08:33:52;;;;;;;97.38;19.02;;;6.70;99.90;;;;;;5101595;28;20030;-51
2022/12/23 08:36:20;;;;;;;83.10;18.45;;;7.20;99.90;;;;;;5102505;28;20035;-48
2022/12/23 08:38:46;;;;;;;74.30;18.88;;;6.80;99.90;;;;;;5101252;28;20068;-48
2022/12/23 08:41:15;;;;;;;76.60;18.20;;;7.30;99.90;;;;;;5100302;28;20046;-48
2022/12/23 08:43:41;;;;;;;58.08;15.57;;;6.90;99.90;;;;;;5102598;28;20768;-47
2022/12/23 08:46:08;;;;;;;65.45;17.17;;;6.60;99.90;;;;;;5103661;28;20569;-48
2022/12/23 08:48:34;;;;;;;90.88;16.63;;;7.30;99.90;;;;;;5111240;28;20039;-46
2022/12/23 08:51:06;;;;;;;52.42;15.43;;;6.90;99.90;;;;;;5109218;27;20044;-51
2022/12/23 08:53:34;;;;;;;64.05;16.55;;;6.70;99.90;;;;;;5110702;28;20040;-47
2022/12/23 08:56:12;;;;;;;49.25;14.95;;;7.30;99.90;;;;;;5111450;28;20047;-49
2022/12/23 08:58:40;;;;;;;51.22;14.95;;;7.00;99.90;;;;;;5112112;28;20044;-46
2022/12/23 09:01:08;;;;;;;58.63;15.93;;;6.90;99.90;;;;;;5118256;27;20035;-47
2022/12/23 09:03:35;;;;;;;47.38;15.63;;;7.20;99.90;;;;;;5112644;28;20023;-50
2022/12/23 09:06:06;;;;;;;48.38;15.88;;;7.20;99.90;;;;;;5112477;28;20050;-49
2022/12/23 09:08:32;;;;;;;42.28;14.65;;;7.30;99.90;;;;;;5111621;28;20475;-49
2022/12/23 09:10:57;;;;;;;57.50;14.43;;;6.80;99.90;;;;;;5115464;27;20042;-47
2022/12/23 09:13:23;;;;;;;53.80;13.98;;;6.80;99.90;;;;;;5112246;28;20049;-50
2022/12/23 09:15:49;;;;;;;46.67;15.07;;;6.80;99.90;;;;;;5112351;28;20035;-49
2022/12/23 09:18:14;;;;;;;34.85;12.15;;;6.80;99.90;;;;;;5117479;27;20550;-49
2022/12/23 09:20:40;;;;;;;30.70;11.40;;;7.40;99.90;;;;;;5102865;28;20527;-47
2022/12/23 09:23:06;;;;;;;33.38;12.00;;;7.00;99.90;;;;;;5102290;28;20524;-54
2022/12/23 09:25:34;;;;;;;35.42;11.45;;;7.50;99.90;;;;;;5101076;28;20494;-48
2022/12/23 09:27:59;;;;;;;35.70;12.15;;;6.90;99.90;;;;;;5101846;28;20106;-49
2022/12/23 09:30:25;;;;;;;32.45;11.48;;;6.90;99.90;;;;;;5100851;27;20118;-47
2022/12/23 09:32:51;;;;;;;32.97;12.60;;;6.90;99.90;;;;;;5101567;28;20042;-48
2022/12/23 09:35:16;;;;;;;35.88;13.30;;;7.60;99.90;;;;;;5100003;28;20039;-47
2022/12/23 09:37:42;;;;;;;32.75;12.48;;;5.90;99.90;;;;;;5102087;28;20039;-48
2022/12/23 09:40:13;;;;;;;34.83;13.45;;;7.10;99.90;;;;;;5101637;28;20039;-47
2022/12/23 09:43:12;;;;;;;32.72;12.77;;;6.80;99.90;;;;;;5100031;28;20038;-49
2022/12/23 09:46:13;;;;;;;30.30;12.10;;;6.90;99.90;;;;;;5100968;28;20089;-50
2022/12/23 09:48:53;;;;;;;28.45;12.15;;;7.20;99.90;;;;;;5088255;28;20047;-49
2022/12/23 09:51:22;;;;;;;32.30;12.98;;;7.20;99.90;;;;;;5101704;28;20524;-47
2022/12/23 09:54:23;;;;;;;34.47;13.85;;;7.10;99.90;;;;;;5101915;28;20057;-48
2022/12/23 09:56:59;;;;;;;34.15;14.07;;;7.50;99.90;;;;;;5101127;28;20035;-49
2022/12/23 09:59:43;;;;;;;30.42;13.32;;;7.20;99.90;;;;;;5100365;28;20339;-48
2022/12/23 10:02:27;;;;;;;29.02;12.10;;;7.60;99.90;;;;;;5099666;28;20023;-48
2022/12/23 10:05:05;;;;;;;29.77;12.90;;;7.20;99.90;;;;;;5099607;28;20043;-50
2022/12/23 10:07:42;;;;;;;28.08;11.68;;;7.50;99.90;;;;;;5099872;28;20397;-46
2022/12/23 10:10:29;;;;;;;26.17;11.73;;;7.70;99.90;;;;;;5100538;28;20475;-51
2022/12/23 10:12:58;;;;;;;24.60;10.55;;;7.20;99.90;;;;;;5099075;28;20036;-50
2022/12/23 10:15:24;;;;;;;26.27;11.07;;;7.70;99.90;;;;;;5102436;28;20039;-51
2022/12/23 10:17:54;;;;;;;27.02;10.85;;;7.50;99.90;;;;;;5102489;28;20107;-47
2022/12/23 10:20:38;;;;;;;26.30;10.82;;;7.20;99.90;;;;;;5101241;28;20039;-49
2022/12/23 10:23:09;;;;;;;29.77;11.63;;;7.80;99.90;;;;;;5100883;28;20043;-48
2022/12/23 10:25:42;;;;;;;26.27;10.43;;;7.30;99.90;;;;;;5105692;28;20060;-48
2022/12/23 10:28:09;;;;;;;27.85;11.27;;;8.00;99.90;;;;;;5110661;28;20482;-48
2022/12/23 10:30:39;;;;;;;28.35;11.98;;;7.70;99.90;;;;;;5109388;28;20036;-50
2022/12/23 10:33:36;;;;;;;31.70;12.40;;;7.40;99.90;;;;;;5110089;28;20038;-50
2022/12/23 10:36:39;;;;;;;33.08;11.75;;;8.00;99.90;;;;;;5096998;28;20393;-51
2022/12/23 10:39:26;;;;;;;29.77;11.38;;;8.10;99.90;;;;;;5091060;28;20035;-52
2022/12/23 10:42:17;;;;;;;31.58;12.02;;;7.40;99.90;;;;;;5111220;28;20949;-49
2022/12/23 10:44:58;;;;;;;31.63;12.02;;;7.70;99.90;;;;;;5111119;28;20055;-50
2022/12/23 10:47:55;;;;;;;30.70;12.10;;;7.50;99.90;;;;;;5112759;28;20367;-48
2022/12/23 10:50:38;;;;;;;38.35;13.38;;;7.90;99.90;;;;;;5114709;28;20061;-47
2022/12/23 10:53:09;;;;;;;34.92;12.27;;;8.00;99.90;;;;;;5114704;28;20038;-51
2022/12/23 10:55:37;;;;;;;36.28;12.82;;;7.50;99.90;;;;;;5125132;27;20043;-48
2022/12/23 10:58:11;;;;;;;35.72;13.23;;;7.90;99.90;;;;;;5115150;28;20549;-50
2022/12/23 11:00:41;;;;;;;33.20;13.20;;;7.90;99.90;;;;;;5115023;27;20435;-47
2022/12/23 11:03:25;;;;;;;36.03;13.45;;;8.10;99.90;;;;;;5114434;28;20043;-50
2022/12/23 11:05:52;;;;;;;37.65;13.32;;;7.50;99.90;;;;;;5114767;28;20084;-46
2022/12/23 11:08:21;;;;;;;39.08;13.98;;;8.00;99.90;;;;;;5112923;28;20035;-48
2022/12/23 11:10:47;;;;;;;38.13;13.43;;;7.60;99.90;;;;;;5114919;28;20035;-48
2022/12/23 11:13:33;;;;;;;39.35;13.68;;;7.60;99.90;;;;;;5114501;27;20043;-50
2022/12/23 11:16:10;;;;;;;37.58;14.18;;;8.10;99.90;;;;;;5114167;27;20089;-48
2022/12/23 11:18:36;;;;;;;37.63;14.00;;;7.50;99.90;;;;;;5114835;28;20046;-49
2022/12/23 11:21:05;;;;;;;35.33;13.98;;;7.50;99.90;;;;;;5114377;28;20498;-48
2022/12/23 11:23:34;;;;;;;39.80;13.85;;;7.60;99.90;;;;;;5110577;28;20062;-50
2022/12/23 11:26:06;;;;;;;43.28;15.30;;;8.10;99.90;;;;;;5107779;28;20047;-50
2022/12/23 11:28:36;;;;;;;41.22;15.10;;;7.50;99.90;;;;;;5113520;28;20039;-49
2022/12/23 11:31:07;;;;;;;44.17;14.70;;;8.20;99.90;;;;;;5112697;28;20035;-46
2022/12/23 11:33:56;;;;;;;39.00;14.35;;;7.50;99.90;;;;;;5113475;27;20038;-50
2022/12/23 11:36:24;;;;;;;45.17;15.70;;;8.20;99.90;;;;;;5111415;28;20044;-48
2022/12/23 11:39:08;;;;;;;47.90;16.25;;;8.20;99.90;;;;;;5111676;28;20436;-50
2022/12/23 11:41:42;;;;;;;52.38;16.63;;;7.90;99.90;;;;;;5112484;28;20378;-51
2022/12/23 11:44:29;;;;;;;52.08;16.80;;;7.80;99.90;;;;;;5112487;28;20043;-49
2022/12/23 11:46:55;;;;;;;51.50;17.17;;;8.10;99.90;;;;;;5110052;28;20031;-50
2022/12/23 11:49:30;;;;;;;54.65;17.70;;;8.00;99.90;;;;;;5111655;28;20039;-47
2022/12/23 11:52:05;;;;;;;53.92;18.05;;;7.70;99.90;;;;;;5112813;28;20529;-47
2022/12/23 11:54:32;;;;;;;55.90;17.00;;;7.50;99.90;;;;;;5111884;28;20489;-48
2022/12/23 11:57:00;;;;;;;59.28;16.48;;;7.60;99.90;;;;;;5111729;28;20031;-47
2022/12/23 11:59:39;;;;;;;59.42;18.63;;;8.10;99.90;;;;;;5112511;28;20367;-48
2022/12/23 12:02:20;;;;;;;49.15;17.27;;;7.60;99.90;;;;;;5110388;28;20075;-49
2022/12/23 12:04:56;;;;;;;53.13;17.23;;;7.50;99.90;;;;;;5112204;28;20419;-47
2022/12/23 12:07:22;;;;;;;51.63;17.13;;;7.60;99.90;;;;;;5109875;28;20039;-49
2022/12/23 12:09:48;;;;;;;60.05;17.60;;;7.60;99.90;;;;;;5111277;28;20382;-46
2022/12/23 12:12:19;;;;;;;54.80;16.45;;;7.80;99.90;;;;;;5112404;27;20028;-50
2022/12/23 12:14:50;;;;;;;57.90;17.05;;;8.20;99.90;;;;;;5110577;28;20089;-47
2022/12/23 12:17:35;;;;;;;56.03;17.00;;;8.10;99.90;;;;;;5111278;28;20040;-51
2022/12/23 12:20:00;;;;;;;51.90;16.92;;;8.20;99.90;;;;;;5112453;28;20047;-50
2022/12/23 12:23:02;;;;;;;55.83;16.85;;;7.60;99.90;;;;;;5112834;27;20036;-49
2022/12/23 12:25:34;;;;;;;59.65;17.40;;;8.20;99.90;;;;;;5112981;28;20501;-50
2022/12/23 12:28:03;;;;;;;56.88;18.35;;;8.10;99.90;;;;;;5113367;28;20047;-48
2022/12/23 12:30:37;;;;;;;60.65;17.52;;;8.20;99.90;;;;;;5113223;28;20112;-47
2022/12/23 12:33:26;;;;;;;60.67;20.02;;;7.60;99.90;;;;;;5113335;28;20042;-50
2022/12/23 12:36:14;;;;;;;72.00;19.52;;;7.60;99.90;;;;;;5112793;28;20065;-49
2022/12/23 12:38:44;;;;;;;64.78;19.42;;;8.30;99.90;;;;;;5112683;27;20039;-51
2022/12/23 12:41:13;;;;;;;66.93;18.08;;;7.80;99.90;;;;;;5118538;27;20057;-49
2022/12/23 12:43:58;;;;;;;61.80;18.38;;;8.30;99.90;;;;;;5111864;28;20126;-48
2022/12/23 12:46:39;;;;;;;66.68;19.70;;;8.30;99.90;;;;;;5112933;27;20462;-47
2022/12/23 12:49:44;;;;;;;65.13;18.58;;;7.90;99.90;;;;;;5116326;27;20032;-50
2022/12/23 12:52:15;;;;;;;74.60;18.92;;;8.30;99.90;;;;;;5072992;27;20048;-47
2022/12/23 12:54:55;;;;;;;65.32;18.40;;;8.30;99.90;;;;;;5112637;28;20355;-51
2022/12/23 12:57:22;;;;;;;72.15;19.25;;;8.20;99.90;;;;;;5112497;28;20074;-49
2022/12/23 12:59:52;;;;;;;64.13;17.95;;;8.10;99.90;;;;;;5112673;28;20050;-50
2022/12/23 13:02:18;;;;;;;70.63;18.15;;;8.20;99.90;;;;;;5112334;28;20035;-48
2022/12/23 13:04:58;;;;;;;64.13;17.38;;;7.70;99.90;;;;;;5112429;28;20082;-50
2022/12/23 13:07:42;;;;;;;62.67;17.50;;;8.30;99.90;;;;;;5120546;27;20044;-48
2022/12/23 13:10:26;;;;;;;73.22;19.80;;;8.00;99.90;;;;;;5111298;28;20383;-51
2022/12/23 13:13:10;;;;;;;54.95;16.88;;;8.30;99.90;;;;;;5112276;27;20463;-50
2022/12/23 13:16:01;;;;;;;73.82;18.52;;;8.10;99.90;;;;;;5112570;28;20142;-47
2022/12/23 13:18:44;;;;;;;56.67;16.88;;;7.90;99.90;;;;;;5110940;28;20080;-49
2022/12/23 13:21:37;;;;;;;66.78;16.55;;;8.30;99.90;;;;;;5112068;28;20035;-48
2022/12/23 13:24:03;;;;;;;59.10;16.45;;;8.20;99.90;;;;;;5112023;28;20047;-49